Time;durP1;ratioP1;P1;durP2;ratioP2;P2;SDS_P1;SDS_P2;PMS_P1;PMS_P2;Temp;Humidity;BMP_temperature;BMP_pressure;BME280_temperature;BME280_humidity;BME280_pressure;Samples;Min_cycle;Max_cycle;Signal;HPM_P1;HPM_P2
2021/03/19 00:02:53;;;;;;;0.63;0.40;;;17.70;58.60;;;;;;10500671;28;20376;-59
2021/03/19 00:07:56;;;;;;;0.50;0.40;;;17.80;58.70;;;;;;10460335;28;20385;-60
2021/03/19 00:13:02;;;;;;;1.73;0.52;;;17.80;58.60;;;;;;10459938;28;20056;-60
2021/03/19 00:18:04;;;;;;;1.10;0.40;;;17.80;58.50;;;;;;10486306;28;20048;-60
2021/03/19 00:23:06;;;;;;;0.40;0.30;;;17.80;58.50;;;;;;10496614;28;20033;-61
2021/03/19 00:28:13;;;;;;;1.40;0.38;;;17.70;58.50;;;;;;10494841;28;20052;-60
2021/03/19 00:33:14;;;;;;;1.05;0.40;;;17.80;58.50;;;;;;10485886;28;20024;-61
2021/03/19 00:38:15;;;;;;;2.13;0.82;;;17.80;58.40;;;;;;10462402;28;20546;-61
2021/03/19 00:43:17;;;;;;;1.25;0.30;;;17.70;58.40;;;;;;10485878;28;20037;-60
2021/03/19 00:48:17;;;;;;;1.00;0.38;;;17.80;58.40;;;;;;10489275;28;20469;-60
2021/03/19 00:53:18;;;;;;;1.75;0.60;;;17.80;58.40;;;;;;10458453;28;20070;-60
2021/03/19 00:58:19;;;;;;;0.82;0.40;;;17.80;58.30;;;;;;10459236;28;20032;-60
2021/03/19 01:03:20;;;;;;;1.77;0.52;;;17.80;58.20;;;;;;10490557;28;20029;-60
2021/03/19 01:08:20;;;;;;;1.33;0.50;;;17.80;58.10;;;;;;10483172;28;20028;-60
2021/03/19 01:13:23;;;;;;;0.45;0.32;;;17.80;58.00;;;;;;10498311;28;20036;-60
2021/03/19 01:18:29;;;;;;;0.73;0.30;;;17.80;58.00;;;;;;10486605;28;20052;-60
2021/03/19 01:23:30;;;;;;;1.10;0.30;;;17.80;58.00;;;;;;10468753;28;20087;-60
2021/03/19 01:28:30;;;;;;;0.88;0.32;;;17.80;58.00;;;;;;10466602;28;20103;-59
2021/03/19 01:33:31;;;;;;;1.08;0.50;;;17.80;57.90;;;;;;10486413;28;20120;-60
2021/03/19 01:38:34;;;;;;;0.55;0.22;;;17.80;58.00;;;;;;10467555;28;20109;-60
2021/03/19 01:43:41;;;;;;;0.57;0.30;;;17.80;57.90;;;;;;10494796;28;20044;-60
2021/03/19 01:49:38;;;;;;;0.75;0.20;;;17.80;57.90;;;;;;10477031;28;20040;-60
2021/03/19 01:55:35;;;;;;;0.90;0.38;;;17.80;57.80;;;;;;10455999;28;20037;-60
2021/03/19 02:01:32;;;;;;;0.73;0.40;;;17.80;57.80;;;;;;10482238;28;20036;-60
2021/03/19 02:07:28;;;;;;;0.88;0.43;;;17.80;57.70;;;;;;10496372;28;20399;-60
2021/03/19 02:13:25;;;;;;;0.85;0.45;;;17.80;57.70;;;;;;10471321;28;20466;-60
2021/03/19 02:19:22;;;;;;;0.52;0.32;;;17.80;57.70;;;;;;10458902;28;20396;-60
2021/03/19 02:25:19;;;;;;;1.00;0.40;;;17.80;57.60;;;;;;10456263;28;20037;-60
2021/03/19 02:31:12;;;;;;;1.58;0.38;;;17.80;57.60;;;;;;10493117;28;20041;-60
2021/03/19 02:36:19;;;;;;;0.30;0.30;;;17.80;57.50;;;;;;10477379;28;20359;-61
2021/03/19 02:41:20;;;;;;;0.30;0.30;;;17.80;57.40;;;;;;10492834;28;20115;-60
2021/03/19 02:46:21;;;;;;;0.93;0.32;;;17.80;57.40;;;;;;10468984;28;20037;-60
2021/03/19 02:51:22;;;;;;;0.95;0.38;;;17.90;57.30;;;;;;10468578;28;20021;-59
2021/03/19 02:56:23;;;;;;;0.50;0.30;;;17.80;57.30;;;;;;10507102;28;20020;-59
2021/03/19 03:01:24;;;;;;;0.75;0.30;;;17.80;57.20;;;;;;10468368;28;20120;-60
2021/03/19 03:06:57;;;;;;;0.47;0.28;;;17.80;57.20;;;;;;10505971;28;20032;-59
2021/03/19 03:11:58;;;;;;;0.22;0.20;;;17.80;57.20;;;;;;10482700;28;20053;-60
2021/03/19 03:17:03;;;;;;;0.82;0.30;;;17.80;57.10;;;;;;10468181;28;20103;-59
2021/03/19 03:22:04;;;;;;;0.20;0.20;;;17.80;57.10;;;;;;10468025;28;20040;-59
2021/03/19 03:27:08;;;;;;;0.65;0.40;;;17.80;57.00;;;;;;10492644;28;20369;-60
2021/03/19 03:32:09;;;;;;;0.65;0.38;;;17.80;57.00;;;;;;10496239;28;20028;-60
2021/03/19 03:37:10;;;;;;;1.08;0.20;;;17.80;57.00;;;;;;10464635;28;20144;-60
2021/03/19 03:42:11;;;;;;;0.80;0.30;;;17.80;56.90;;;;;;10475091;28;20055;-60
2021/03/19 03:47:11;;;;;;;0.95;0.40;;;17.80;57.00;;;;;;10502978;28;20028;-60
2021/03/19 03:52:12;;;;;;;0.88;0.30;;;17.80;57.00;;;;;;10486243;28;20108;-60
2021/03/19 03:57:13;;;;;;;0.60;0.50;;;17.80;57.00;;;;;;10460810;28;20064;-61
2021/03/19 04:02:24;;;;;;;1.88;0.55;;;17.80;56.90;;;;;;10466788;28;20060;-60
2021/03/19 04:07:25;;;;;;;0.45;0.30;;;17.80;56.80;;;;;;10496296;28;20036;-60
2021/03/19 04:12:26;;;;;;;0.88;0.20;;;17.80;56.80;;;;;;10483117;28;20037;-60
2021/03/19 04:17:31;;;;;;;0.75;0.30;;;17.70;56.80;;;;;;10459830;28;20111;-60
2021/03/19 04:22:32;;;;;;;0.40;0.38;;;17.80;56.80;;;;;;10472485;28;20503;-60
2021/03/19 04:27:42;;;;;;;1.13;0.40;;;17.70;56.70;;;;;;10483593;28;20036;-60
2021/03/19 04:32:42;;;;;;;;;;;17.70;57.40;;;;;;10470906;28;20039;-60
2021/03/19 04:37:43;;;;;;;4.65;0.60;;;17.70;56.70;;;;;;10459515;28;19919;-60
2021/03/19 04:42:44;;;;;;;0.88;0.30;;;17.70;56.80;;;;;;10477267;28;20526;-59
2021/03/19 04:47:45;;;;;;;1.23;0.30;;;17.70;56.70;;;;;;10490331;28;20095;-59
2021/03/19 04:52:46;;;;;;;0.45;0.25;;;17.70;56.60;;;;;;10477704;28;20111;-60
2021/03/19 04:57:46;;;;;;;1.15;0.40;;;17.70;56.60;;;;;;10457330;28;20053;-60
2021/03/19 05:02:49;;;;;;;0.98;0.35;;;17.70;56.60;;;;;;10480669;28;20037;-60
2021/03/19 05:07:50;;;;;;;0.40;0.28;;;17.70;56.60;;;;;;10492463;28;20105;-60
2021/03/19 05:12:52;;;;;;;0.73;0.30;;;17.60;56.50;;;;;;10477137;28;20037;-59
2021/03/19 05:17:53;;;;;;;0.77;0.40;;;17.70;56.60;;;;;;10455956;28;20052;-59
2021/03/19 05:22:54;;;;;;;0.80;0.20;;;17.70;56.60;;;;;;10470651;28;20033;-60
2021/03/19 05:27:55;;;;;;;1.80;0.45;;;17.70;56.50;;;;;;10457283;28;20112;-60
2021/03/19 05:32:55;;;;;;;0.90;0.30;;;17.70;56.40;;;;;;10455792;28;20098;-59
2021/03/19 05:37:57;;;;;;;0.43;0.43;;;17.70;56.30;;;;;;10473522;28;20037;-60
2021/03/19 05:43:20;;;;;;;1.35;0.60;;;17.70;56.30;;;;;;10477192;28;20032;-60
2021/03/19 05:48:23;;;;;;;0.68;0.30;;;17.70;56.20;;;;;;10472468;28;20052;-60
2021/03/19 05:53:41;;;;;;;0.40;0.40;;;17.70;56.30;;;;;;10474032;28;20037;-60
2021/03/19 05:58:44;;;;;;;0.85;0.30;;;17.70;56.30;;;;;;10463545;28;20385;-60
2021/03/19 06:03:46;;;;;;;0.40;0.20;;;17.60;56.40;;;;;;10455326;28;20041;-60
2021/03/19 06:08:49;;;;;;;0.38;0.17;;;17.60;56.40;;;;;;10465529;28;20439;-59
2021/03/19 06:13:55;;;;;;;2.60;0.30;;;17.60;56.30;;;;;;10450603;28;20043;-60
2021/03/19 06:18:59;;;;;;;5.93;0.63;;;17.70;56.40;;;;;;10475327;28;20052;-59
2021/03/19 06:24:26;;;;;;;1.23;0.50;;;17.70;58.30;;;;;;10455217;28;20071;-60
2021/03/19 06:29:43;;;;;;;6.85;0.80;;;17.80;58.80;;;;;;10476676;28;20066;-60
2021/03/19 06:34:59;;;;;;;3.70;0.45;;;17.80;58.40;;;;;;10473243;28;20516;-60
2021/03/19 06:40:23;;;;;;;4.60;0.38;;;17.80;58.90;;;;;;10454246;28;20083;-61
2021/03/19 06:45:26;;;;;;;4.88;0.50;;;17.80;58.90;;;;;;10450512;28;20067;-61
2021/03/19 06:50:28;;;;;;;8.00;1.13;;;17.80;59.20;;;;;;10454093;28;20036;-60
2021/03/19 06:55:46;;;;;;;14.70;1.38;;;17.80;58.60;;;;;;10453532;28;20372;-60
2021/03/19 07:00:47;;;;;;;10.18;2.17;;;17.70;58.50;;;;;;10457521;28;20116;-59
2021/03/19 07:06:52;;;;;;;11.20;1.42;;;17.70;58.20;;;;;;10459929;28;20032;-60
2021/03/19 07:12:39;;;;;;;3.97;0.88;;;17.80;58.70;;;;;;10442125;28;20048;-59
2021/03/19 07:17:55;;;;;;;8.65;1.38;;;17.80;58.30;;;;;;10495650;28;20060;-59
2021/03/19 07:23:17;;;;;;;5.20;1.13;;;17.90;58.10;;;;;;10494651;28;21570;-58
2021/03/19 07:28:24;;;;;;;8.88;1.08;;;17.90;58.50;;;;;;10494425;28;20175;-59
2021/03/19 07:34:21;;;;;;;10.70;1.50;;;17.90;58.70;;;;;;10483644;28;20035;-60
2021/03/19 07:39:41;;;;;;;7.85;1.50;;;18.00;59.50;;;;;;10453699;28;20040;-59
2021/03/19 07:45:41;;;;;;;6.10;1.10;;;18.00;59.00;;;;;;10469123;28;20036;-59
2021/03/19 07:51:12;;;;;;;8.93;1.65;;;18.00;59.20;;;;;;10457616;28;20041;-58
2021/03/19 07:56:35;;;;;;;11.38;1.52;;;18.10;59.20;;;;;;10459582;28;20089;-59
2021/03/19 08:01:45;;;;;;;6.80;1.25;;;18.10;59.20;;;;;;10440637;28;20035;-59
2021/03/19 08:06:54;;;;;;;7.57;0.80;;;18.10;59.10;;;;;;10457975;28;20048;-60
2021/03/19 08:12:06;;;;;;;3.88;0.85;;;18.10;59.60;;;;;;10448976;28;20033;-58
2021/03/19 08:17:52;;;;;;;6.88;1.27;;;18.10;59.40;;;;;;10451742;28;20523;-59
2021/03/19 08:23:01;;;;;;;8.25;1.13;;;18.10;59.40;;;;;;10452246;28;20053;-61
2021/03/19 08:28:22;;;;;;;4.32;0.93;;;18.10;59.50;;;;;;10450994;28;20132;-60
2021/03/19 08:34:06;;;;;;;12.02;1.60;;;18.10;59.50;;;;;;10448557;28;20115;-60
2021/03/19 08:39:45;;;;;;;11.98;2.00;;;18.00;59.90;;;;;;10438452;28;20370;-60
2021/03/19 08:44:47;;;;;;;10.10;1.75;;;18.00;60.60;;;;;;10444349;28;20448;-61
2021/03/19 08:49:51;;;;;;;20.85;2.70;;;17.90;61.20;;;;;;10464493;28;20029;-59
2021/03/19 08:55:15;;;;;;;13.35;2.22;;;18.00;60.40;;;;;;10460123;28;20029;-60
2021/03/19 09:00:24;;;;;;;17.25;2.22;;;18.00;60.30;;;;;;10467488;28;20484;-59
2021/03/19 09:05:28;;;;;;;;;;;17.90;60.40;;;;;;10466117;28;20033;-60
2021/03/19 09:10:29;;;;;;;21.55;2.40;;;18.00;60.00;;;;;;10450546;28;19920;-60
2021/03/19 09:15:32;;;;;;;15.00;2.13;;;17.90;60.40;;;;;;10449934;28;20037;-60
2021/03/19 09:20:41;;;;;;;16.40;3.42;;;17.90;60.50;;;;;;10450246;28;20043;-60
2021/03/19 09:25:53;;;;;;;12.25;1.70;;;17.90;61.00;;;;;;10449578;28;20049;-60
2021/03/19 09:30:59;;;;;;;15.10;2.95;;;17.90;61.10;;;;;;10449871;28;20075;-61
2021/03/19 09:36:00;;;;;;;21.92;2.53;;;17.80;61.30;;;;;;10480102;28;20036;-61
2021/03/19 09:41:08;;;;;;;13.40;1.45;;;17.80;61.20;;;;;;10472959;28;20036;-60
2021/03/19 09:46:30;;;;;;;15.60;2.03;;;17.80;61.10;;;;;;10449308;28;20486;-61
2021/03/19 09:51:38;;;;;;;18.10;2.25;;;17.90;61.30;;;;;;10447605;28;20167;-61
2021/03/19 09:56:40;;;;;;;13.02;1.75;;;17.90;61.30;;;;;;10448735;28;20064;-61
2021/03/19 10:01:44;;;;;;;18.83;2.25;;;17.90;61.40;;;;;;10431410;28;20577;-61
2021/03/19 10:06:48;;;;;;;21.92;2.25;;;17.90;61.40;;;;;;10440274;28;20111;-61
2021/03/19 10:12:05;;;;;;;15.77;1.83;;;17.90;61.30;;;;;;10442336;28;20078;-61
2021/03/19 10:17:21;;;;;;;11.90;2.08;;;17.90;61.20;;;;;;10446597;28;20064;-62
2021/03/19 10:22:41;;;;;;;16.73;3.08;;;17.90;61.30;;;;;;10448194;28;20033;-63
2021/03/19 10:27:55;;;;;;;9.98;1.90;;;17.90;61.40;;;;;;10432895;28;20026;-61
2021/03/19 10:33:12;;;;;;;15.82;1.90;;;17.90;61.40;;;;;;10452685;28;20039;-62
2021/03/19 10:38:28;;;;;;;14.38;1.88;;;17.90;61.60;;;;;;10444497;28;20485;-61
2021/03/19 10:43:34;;;;;;;10.38;1.70;;;18.00;61.60;;;;;;10446238;28;20063;-62
2021/03/19 10:48:43;;;;;;;10.68;1.42;;;17.90;61.10;;;;;;10452782;28;20036;-61
2021/03/19 10:54:08;;;;;;;10.73;1.50;;;17.90;60.50;;;;;;10443844;28;20724;-62
2021/03/19 10:59:31;;;;;;;11.32;1.85;;;17.90;59.90;;;;;;10455649;28;20114;-62
2021/03/19 11:04:38;;;;;;;5.80;1.60;;;17.90;59.40;;;;;;10461464;28;20818;-61
2021/03/19 11:10:10;;;;;;;5.35;1.27;;;17.80;59.00;;;;;;10456873;28;20055;-61
2021/03/19 11:15:25;;;;;;;7.55;1.70;;;17.80;58.60;;;;;;10471565;28;20036;-61
2021/03/19 11:20:35;;;;;;;5.78;1.90;;;17.90;58.70;;;;;;10464508;28;20037;-61
2021/03/19 11:25:49;;;;;;;3.55;1.27;;;17.90;58.70;;;;;;10448954;28;20509;-59
2021/03/19 11:30:50;;;;;;;9.80;1.80;;;17.80;58.10;;;;;;10444455;28;20033;-62
2021/03/19 11:36:10;;;;;;;12.02;1.63;;;17.80;57.80;;;;;;10456014;28;20094;-62
2021/03/19 11:41:40;;;;;;;9.57;1.85;;;17.80;58.00;;;;;;10454812;28;20127;-59
2021/03/19 11:46:41;;;;;;;8.70;1.15;;;17.90;58.40;;;;;;10452217;28;20085;-61
2021/03/19 11:51:41;;;;;;;9.52;1.17;;;17.90;58.50;;;;;;10454396;28;20033;-61
2021/03/19 11:56:42;;;;;;;4.18;1.15;;;17.90;58.70;;;;;;10452904;28;20045;-62
2021/03/19 12:01:43;;;;;;;8.77;2.92;;;17.90;58.80;;;;;;10452757;28;20029;-63
2021/03/19 12:06:44;;;;;;;12.10;2.45;;;17.90;59.10;;;;;;10453364;28;20033;-60
2021/03/19 12:11:45;;;;;;;4.50;0.98;;;17.90;59.10;;;;;;10453157;28;20060;-60
2021/03/19 12:16:45;;;;;;;10.55;1.85;;;17.90;59.40;;;;;;10452124;28;20152;-62
2021/03/19 12:21:46;;;;;;;11.55;1.42;;;18.00;59.70;;;;;;10452939;28;20028;-60
2021/03/19 12:26:47;;;;;;;21.60;2.70;;;18.00;59.90;;;;;;10452561;28;20033;-61
2021/03/19 12:31:48;;;;;;;18.25;2.13;;;18.00;60.70;;;;;;10452408;28;20039;-59
2021/03/19 12:36:49;;;;;;;23.35;2.47;;;18.10;60.40;;;;;;10450923;28;20858;-61
2021/03/19 12:41:50;;;;;;;27.92;3.53;;;18.10;60.50;;;;;;10451690;28;20036;-60
2021/03/19 12:46:52;;;;;;;18.25;2.35;;;18.10;60.60;;;;;;10452191;28;20500;-61
2021/03/19 12:51:53;;;;;;;21.38;3.15;;;18.10;60.20;;;;;;10452086;28;20447;-62
2021/03/19 12:56:53;;;;;;;23.13;3.15;;;18.10;60.00;;;;;;10479949;28;20035;-65
2021/03/19 13:01:55;;;;;;;34.47;3.95;;;18.10;60.20;;;;;;10450095;28;20434;-62
2021/03/19 13:06:56;;;;;;;31.83;4.18;;;18.10;60.00;;;;;;10448609;28;20029;-65
2021/03/19 13:11:57;;;;;;;33.90;4.40;;;18.10;59.80;;;;;;10444064;28;20047;-62
2021/03/19 13:17:00;;;;;;;25.30;4.18;;;18.10;59.50;;;;;;10465740;28;20581;-63
2021/03/19 13:22:00;;;;;;;31.08;3.97;;;18.20;59.80;;;;;;10447474;28;20037;-64
2021/03/19 13:27:01;;;;;;;23.40;3.13;;;18.20;60.00;;;;;;10433518;28;20722;-63
2021/03/19 13:32:02;;;;;;;22.98;4.97;;;18.20;60.10;;;;;;10440831;28;20090;-65
2021/03/19 13:37:03;;;;;;;28.63;3.85;;;18.20;60.10;;;;;;10433280;28;20032;-66
2021/03/19 13:42:07;;;;;;;31.00;5.72;;;18.10;60.50;;;;;;10441485;28;20037;-64
2021/03/19 13:47:10;;;;;;;19.13;3.63;;;18.20;60.60;;;;;;10449314;28;20029;-63
2021/03/19 13:52:10;;;;;;;20.50;3.15;;;18.10;59.90;;;;;;10449196;28;20074;-63
2021/03/19 13:57:13;;;;;;;19.02;3.80;;;18.00;59.30;;;;;;10447615;28;20469;-63
2021/03/19 14:02:14;;;;;;;19.13;3.45;;;17.90;59.40;;;;;;10451488;28;20041;-63
2021/03/19 14:07:15;;;;;;;23.60;4.00;;;17.80;59.50;;;;;;10450548;28;20040;-63
2021/03/19 14:12:16;;;;;;;16.80;2.90;;;17.80;59.50;;;;;;10447806;28;20031;-63
2021/03/19 14:17:16;;;;;;;17.60;3.65;;;17.80;59.60;;;;;;10448452;28;20048;-63
2021/03/19 14:22:18;;;;;;;17.25;3.08;;;17.80;59.60;;;;;;10447706;28;20139;-63
2021/03/19 14:27:19;;;;;;;11.65;2.40;;;17.80;59.50;;;;;;10447469;28;20028;-63
2021/03/19 14:32:20;;;;;;;11.75;1.98;;;17.70;59.50;;;;;;10453869;28;20087;-63
2021/03/19 14:37:21;;;;;;;10.93;1.95;;;17.70;59.60;;;;;;10447983;28;20087;-63
2021/03/19 14:42:21;;;;;;;7.65;1.92;;;17.60;59.70;;;;;;10447646;28;20037;-63
2021/03/19 14:47:22;;;;;;;15.38;3.10;;;17.50;59.70;;;;;;10447795;28;20060;-63
2021/03/19 14:52:23;;;;;;;9.45;1.80;;;17.50;59.90;;;;;;10465957;28;20521;-63
2021/03/19 14:57:23;;;;;;;7.47;2.08;;;17.50;59.90;;;;;;10489108;28;20111;-63
2021/03/19 15:02:24;;;;;;;14.15;2.03;;;17.50;59.90;;;;;;10473895;28;20093;-61
2021/03/19 15:07:25;;;;;;;13.10;2.28;;;17.50;59.50;;;;;;10455344;28;20478;-60
2021/03/19 15:12:25;;;;;;;8.77;2.67;;;17.60;59.70;;;;;;10488637;28;20547;-59
2021/03/19 15:17:26;;;;;;;16.25;2.15;;;17.60;60.90;;;;;;10447694;28;20106;-61
2021/03/19 15:22:26;;;;;;;16.20;3.00;;;17.60;60.90;;;;;;10446682;28;20056;-60
2021/03/19 15:27:29;;;;;;;12.07;2.72;;;17.70;62.50;;;;;;10447203;28;20115;-58
2021/03/19 15:32:29;;;;;;;12.30;2.30;;;17.80;62.00;;;;;;10451696;28;20052;-60
2021/03/19 15:37:30;;;;;;;13.30;1.85;;;17.80;62.30;;;;;;10452844;28;20035;-59
2021/03/19 15:42:31;;;;;;;4.90;1.50;;;17.80;62.60;;;;;;10454086;28;20483;-57
2021/03/19 15:47:31;;;;;;;9.15;1.55;;;17.70;61.60;;;;;;10471873;28;20521;-57
2021/03/19 15:52:32;;;;;;;8.13;1.75;;;17.80;61.00;;;;;;10461038;28;20035;-58
2021/03/19 15:57:33;;;;;;;19.15;2.80;;;17.80;61.00;;;;;;10453693;28;20052;-56
2021/03/19 16:02:33;;;;;;;12.85;2.10;;;17.90;61.10;;;;;;10453601;28;20114;-57
2021/03/19 16:07:34;;;;;;;11.40;2.25;;;18.00;60.90;;;;;;10450011;28;20112;-57
2021/03/19 16:12:36;;;;;;;7.60;1.98;;;18.10;60.60;;;;;;10453662;28;20048;-56
2021/03/19 16:17:36;;;;;;;16.35;2.28;;;18.10;60.60;;;;;;10448221;28;20107;-58
2021/03/19 16:22:38;;;;;;;21.20;2.30;;;18.00;60.80;;;;;;10465139;28;20045;-57
2021/03/19 16:27:39;;;;;;;19.70;2.35;;;18.10;61.30;;;;;;10452628;28;20032;-59
2021/03/19 16:32:40;;;;;;;15.93;1.98;;;18.00;61.00;;;;;;10451506;28;20044;-58
2021/03/19 16:37:40;;;;;;;19.08;2.90;;;18.10;61.10;;;;;;10457031;28;20078;-59
2021/03/19 16:42:41;;;;;;;21.40;3.50;;;18.20;61.10;;;;;;10462228;28;20090;-62
2021/03/19 16:47:42;;;;;;;24.30;2.83;;;18.10;61.20;;;;;;10461069;28;20123;-63
2021/03/19 16:52:49;;;;;;;16.95;3.08;;;18.10;61.70;;;;;;10490009;28;20123;-60
2021/03/19 16:57:50;;;;;;;23.02;2.75;;;18.10;61.50;;;;;;10451599;28;20040;-60
2021/03/19 17:02:51;;;;;;;19.90;5.00;;;18.20;61.00;;;;;;10451157;28;20036;-60
2021/03/19 17:07:52;;;;;;;32.45;12.10;;;18.20;59.70;;;;;;10450891;28;20070;-60
2021/03/19 17:12:53;;;;;;;30.58;11.57;;;18.20;60.20;;;;;;10450543;28;20147;-59
2021/03/19 17:17:54;;;;;;;20.20;8.15;;;18.20;59.90;;;;;;10450436;28;20067;-59
2021/03/19 17:22:55;;;;;;;20.42;10.75;;;18.30;58.90;;;;;;10450222;28;20102;-59
2021/03/19 17:27:56;;;;;;;12.93;5.95;;;18.30;58.30;;;;;;10468225;28;20033;-59
2021/03/19 17:32:58;;;;;;;12.27;5.50;;;18.40;58.10;;;;;;10479614;28;20040;-60
2021/03/19 17:37:58;;;;;;;13.77;5.10;;;18.50;57.60;;;;;;10467625;28;20040;-61
2021/03/19 17:42:59;;;;;;;15.90;4.55;;;18.70;56.30;;;;;;10462229;28;20043;-61
2021/03/19 17:48:01;;;;;;;9.32;3.20;;;18.70;56.40;;;;;;10465652;28;20437;-60
2021/03/19 17:53:03;;;;;;;13.98;3.60;;;18.70;56.40;;;;;;10462581;28;20028;-62
2021/03/19 17:58:04;;;;;;;8.43;3.15;;;18.80;56.40;;;;;;10465813;28;20025;-61
2021/03/19 18:03:05;;;;;;;6.85;2.65;;;18.70;56.60;;;;;;10455072;28;20124;-61
2021/03/19 18:08:07;;;;;;;7.22;2.72;;;18.70;56.20;;;;;;10458097;28;20541;-61
2021/03/19 18:13:08;;;;;;;9.73;2.65;;;18.70;56.20;;;;;;10455507;28;20454;-60
2021/03/19 18:18:09;;;;;;;13.25;3.10;;;18.70;56.40;;;;;;10463938;28;20120;-60
2021/03/19 18:23:19;;;;;;;6.38;2.33;;;18.70;56.30;;;;;;10442806;28;20029;-60
2021/03/19 18:28:23;;;;;;;5.68;2.45;;;18.60;56.30;;;;;;10436306;28;20033;-61
2021/03/19 18:33:24;;;;;;;4.18;2.10;;;18.60;56.30;;;;;;10445784;28;20049;-60
2021/03/19 18:38:24;;;;;;;4.90;1.67;;;18.60;56.40;;;;;;10445559;28;20028;-59
2021/03/19 18:43:26;;;;;;;3.75;1.58;;;18.60;56.60;;;;;;10446903;28;20033;-61
2021/03/19 18:48:26;;;;;;;4.53;1.77;;;18.60;56.60;;;;;;10458685;28;20036;-61
2021/03/19 18:53:27;;;;;;;5.60;1.38;;;18.60;56.70;;;;;;10460739;28;20509;-61
2021/03/19 18:58:28;;;;;;;2.97;1.55;;;18.60;56.80;;;;;;10463128;28;20041;-61
2021/03/19 19:03:29;;;;;;;5.75;1.83;;;18.60;56.70;;;;;;10470805;28;20033;-61
2021/03/19 19:08:31;;;;;;;3.75;1.40;;;18.60;56.80;;;;;;10469258;28;20040;-61
2021/03/19 19:13:32;;;;;;;4.05;1.20;;;18.60;56.80;;;;;;10466461;28;20044;-61
2021/03/19 19:18:33;;;;;;;4.10;1.60;;;18.60;56.80;;;;;;10467027;28;20110;-61
2021/03/19 19:23:34;;;;;;;3.42;1.20;;;18.60;56.70;;;;;;10475817;28;20045;-60
2021/03/19 19:28:36;;;;;;;3.92;1.45;;;18.60;56.90;;;;;;10468329;28;20029;-61
2021/03/19 19:33:37;;;;;;;8.05;1.40;;;18.60;57.30;;;;;;10453288;28;20031;-60
2021/03/19 19:38:38;;;;;;;5.78;1.40;;;18.60;57.10;;;;;;10470593;28;20450;-60
2021/03/19 19:43:41;;;;;;;5.05;1.38;;;18.60;56.90;;;;;;10473954;28;20470;-60
2021/03/19 19:48:42;;;;;;;4.65;1.40;;;18.60;56.80;;;;;;10475971;28;20139;-60
2021/03/19 19:53:43;;;;;;;4.45;1.67;;;18.60;56.60;;;;;;10464270;28;20041;-61
2021/03/19 19:58:51;;;;;;;3.72;1.00;;;18.70;56.80;;;;;;10459942;28;20037;-60
2021/03/19 20:03:55;;;;;;;4.75;1.13;;;18.70;56.80;;;;;;10462039;28;20037;-60
2021/03/19 20:08:56;;;;;;;4.15;1.48;;;18.70;56.60;;;;;;10458679;28;20036;-60
2021/03/19 20:13:57;;;;;;;3.55;1.13;;;18.70;56.70;;;;;;10453743;28;20033;-60
2021/03/19 20:19:03;;;;;;;2.90;0.85;;;18.60;56.60;;;;;;10466249;28;20048;-61
2021/03/19 20:24:05;;;;;;;2.40;1.00;;;18.50;56.70;;;;;;10474008;28;20082;-61
2021/03/19 20:29:10;;;;;;;3.90;1.15;;;18.40;56.60;;;;;;10467888;28;20041;-61
2021/03/19 20:34:12;;;;;;;5.53;0.93;;;18.40;56.60;;;;;;10457723;28;20032;-61
2021/03/19 20:39:37;;;;;;;2.53;0.70;;;18.30;56.80;;;;;;10476007;28;20048;-61
2021/03/19 20:44:38;;;;;;;2.30;0.70;;;18.30;57.00;;;;;;10500965;28;20045;-61
2021/03/19 20:49:39;;;;;;;4.38;1.27;;;18.20;57.20;;;;;;10494023;28;20404;-61
2021/03/19 20:54:40;;;;;;;3.70;0.93;;;18.10;57.30;;;;;;10499857;28;20036;-61
2021/03/19 20:59:41;;;;;;;2.40;0.70;;;18.00;57.30;;;;;;10471405;28;20053;-61
2021/03/19 21:04:42;;;;;;;2.67;0.98;;;18.00;57.40;;;;;;10458679;28;20501;-61
2021/03/19 21:09:46;;;;;;;2.42;1.00;;;17.90;57.50;;;;;;10486121;28;20024;-61
2021/03/19 21:14:47;;;;;;;3.38;0.90;;;17.90;57.60;;;;;;10489546;28;20044;-61
2021/03/19 21:19:49;;;;;;;3.70;0.70;;;17.80;57.70;;;;;;10469440;28;20444;-62
2021/03/19 21:24:50;;;;;;;1.90;0.63;;;17.80;57.70;;;;;;10457538;28;20032;-62
2021/03/19 21:29:50;;;;;;;1.92;0.75;;;17.80;57.80;;;;;;10475580;28;20107;-62
2021/03/19 21:34:51;;;;;;;2.45;0.85;;;17.70;57.80;;;;;;10470882;28;20599;-62
2021/03/19 21:39:52;;;;;;;2.42;0.85;;;17.70;58.00;;;;;;10468918;28;20462;-61
2021/03/19 21:44:53;;;;;;;1.42;0.90;;;17.60;58.00;;;;;;10454451;28;20033;-61
2021/03/19 21:49:53;;;;;;;1.85;0.70;;;17.60;58.00;;;;;;10481655;28;20099;-61
2021/03/19 21:54:56;;;;;;;1.85;0.82;;;17.50;58.10;;;;;;10498132;28;20116;-61
2021/03/19 21:59:57;;;;;;;3.10;0.90;;;17.50;58.20;;;;;;10465048;28;20033;-61
2021/03/19 22:04:58;;;;;;;3.60;0.73;;;17.50;58.40;;;;;;10456331;28;20437;-61
2021/03/19 22:09:58;;;;;;;1.42;0.77;;;17.50;57.90;;;;;;10484509;28;20028;-61
2021/03/19 22:14:59;;;;;;;2.00;0.68;;;17.40;57.90;;;;;;10497814;28;20029;-61
2021/03/19 22:20:00;;;;;;;1.58;0.70;;;17.40;57.90;;;;;;10466063;28;20041;-62
2021/03/19 22:25:01;;;;;;;1.20;0.60;;;17.40;58.00;;;;;;10455974;28;20453;-62
2021/03/19 22:30:06;;;;;;;1.83;0.90;;;17.50;58.00;;;;;;10474701;28;20021;-61
2021/03/19 22:35:10;;;;;;;1.70;0.85;;;17.50;57.90;;;;;;10455391;28;20033;-62
2021/03/19 22:40:17;;;;;;;1.10;0.60;;;17.50;57.90;;;;;;10480537;28;20043;-61
2021/03/19 22:45:18;;;;;;;1.63;0.70;;;17.50;57.90;;;;;;10462104;28;20108;-61
2021/03/19 22:50:28;;;;;;;1.98;1.08;;;17.50;57.80;;;;;;10491322;28;20056;-61
2021/03/19 22:55:29;;;;;;;0.63;0.40;;;17.50;57.70;;;;;;10504958;28;20073;-62
2021/03/19 23:00:39;;;;;;;2.28;0.50;;;17.50;57.60;;;;;;10489536;28;20099;-62
2021/03/19 23:05:40;;;;;;;3.00;0.47;;;17.50;57.60;;;;;;10466181;28;20075;-61
2021/03/19 23:10:49;;;;;;;1.45;0.60;;;17.60;57.60;;;;;;10463007;28;20061;-62
2021/03/19 23:15:50;;;;;;;1.03;0.67;;;17.60;57.50;;;;;;10472910;28;20045;-62
2021/03/19 23:20:52;;;;;;;1.60;0.55;;;17.60;57.40;;;;;;10462469;28;20109;-62
2021/03/19 23:25:53;;;;;;;3.88;0.57;;;17.60;57.40;;;;;;10484382;28;20043;-62
2021/03/19 23:31:02;;;;;;;2.17;0.50;;;17.60;58.00;;;;;;10462104;28;20112;-61
2021/03/19 23:36:04;;;;;;;0.80;0.55;;;17.60;57.30;;;;;;10461713;28;20037;-61
2021/03/19 23:41:20;;;;;;;1.33;0.68;;;17.60;57.30;;;;;;10494827;28;20094;-61
2021/03/19 23:46:32;;;;;;;0.77;0.40;;;17.60;57.30;;;;;;10492520;28;20028;-61
2021/03/19 23:51:33;;;;;;;1.05;0.45;;;17.60;57.30;;;;;;10499919;28;20474;-61
2021/03/19 23:56:35;;;;;;;1.33;0.50;;;17.60;57.30;;;;;;10460014;28;20033;-62
